Time;durP1;ratioP1;P1;durP2;ratioP2;P2;SDS_P1;SDS_P2;PMS_P1;PMS_P2;Temp;Humidity;BMP_temperature;BMP_pressure;BME280_temperature;BME280_humidity;BME280_pressure;Samples;Min_cycle;Max_cycle;Signal;HPM_P1;HPM_P2
2021/04/23 00:00:28;;;;;;;;;;;15.80;81.20;;;;;;5014728;28;19940;-68
2021/04/23 00:02:59;;;;;;;;;;;15.90;80.80;;;;;;5016006;28;19914;-70
2021/04/23 00:05:26;;;;;;;;;;;15.90;81.00;;;;;;5018351;28;19949;-70
2021/04/23 00:07:53;;;;;;;;;;;16.00;80.30;;;;;;5020577;28;20411;-70
2021/04/23 00:10:21;;;;;;;;;;;16.00;80.30;;;;;;5014811;28;20090;-70
2021/04/23 00:12:48;;;;;;;;;;;16.00;79.40;;;;;;5014114;28;19909;-68
2021/04/23 00:15:16;;;;;;;;;;;16.00;80.30;;;;;;5014383;28;19909;-69
2021/04/23 00:17:43;;;;;;;;;;;16.00;78.80;;;;;;5014285;28;19944;-69
2021/04/23 00:20:12;;;;;;;;;;;16.10;79.40;;;;;;5014168;28;19921;-68
2021/04/23 00:22:40;;;;;;;;;;;16.10;79.30;;;;;;5014334;28;19916;-69
2021/04/23 00:25:07;;;;;;;;;;;16.20;80.60;;;;;;5014006;28;20280;-70
2021/04/23 00:27:33;;;;;;;;;;;16.20;79.30;;;;;;5014021;28;19949;-70
2021/04/23 00:30:01;;;;;;;;;;;16.30;78.50;;;;;;5013903;28;19948;-69
2021/04/23 00:35:14;;;;;;;;;;;16.40;79.00;;;;;;5014283;28;19916;-69
2021/04/23 00:37:48;;;;;;;;;;;16.50;78.90;;;;;;5013839;28;19992;-68
2021/04/23 00:40:20;;;;;;;;;;;16.60;77.70;;;;;;5013764;28;19964;-69
2021/04/23 00:42:47;;;;;;;;;;;16.60;77.80;;;;;;5013418;28;20012;-68
2021/04/23 00:45:14;;;;;;;;;;;16.60;79.40;;;;;;5013740;28;19940;-70
2021/04/23 00:47:44;;;;;;;;;;;16.70;78.10;;;;;;5012859;28;19910;-68
2021/04/23 00:50:11;;;;;;;;;;;16.70;77.50;;;;;;4995582;28;20335;-69
2021/04/23 00:52:38;;;;;;;;;;;16.80;77.40;;;;;;5013528;28;20329;-68
2021/04/23 00:55:05;;;;;;;;;;;16.90;76.90;;;;;;5013402;28;19910;-68
2021/04/23 00:57:32;;;;;;;;;;;17.00;76.60;;;;;;5013344;28;19917;-67
2021/04/23 00:59:59;;;;;;;;;;;17.10;75.20;;;;;;5013652;28;19955;-68
2021/04/23 01:02:26;;;;;;;;;;;17.10;75.60;;;;;;4996125;28;20348;-67
2021/04/23 01:04:52;;;;;;;;;;;17.10;75.90;;;;;;5013173;28;20247;-67
2021/04/23 01:07:19;;;;;;;;;;;17.40;76.10;;;;;;5013435;28;20356;-70
2021/04/23 01:09:46;;;;;;;;;;;17.70;76.50;;;;;;4995623;28;19917;-68
2021/04/23 01:12:17;;;;;;;;;;;18.10;73.70;;;;;;5013174;28;19917;-68
2021/04/23 01:14:43;;;;;;;;;;;18.20;73.50;;;;;;5013201;28;19996;-67
2021/04/23 01:17:10;;;;;;;;;;;18.50;73.60;;;;;;5013301;28;20264;-69
2021/04/23 01:19:37;;;;;;;;;;;18.60;72.10;;;;;;5013168;28;20409;-67
2021/04/23 01:22:03;;;;;;;;;;;18.80;71.90;;;;;;5013200;28;19932;-69
2021/04/23 01:24:35;;;;;;;;;;;19.00;70.10;;;;;;5013377;28;19909;-66
2021/04/23 01:27:01;;;;;;;;;;;18.90;69.40;;;;;;5012976;28;20004;-69
2021/04/23 01:29:31;;;;;;;;;;;18.70;69.40;;;;;;5012988;28;20010;-68
2021/04/23 01:31:58;;;;;;;;;;;18.40;71.10;;;;;;5013132;28;19909;-70
2021/04/23 01:34:27;;;;;;;;;;;18.20;71.40;;;;;;5015316;28;20004;-69
2021/04/23 01:36:54;;;;;;;;;;;18.10;71.60;;;;;;5015845;28;19916;-69
2021/04/23 01:39:23;;;;;;;;;;;18.10;71.90;;;;;;5017760;28;19913;-69
2021/04/23 01:41:51;;;;;;;;;;;18.20;72.80;;;;;;5013865;28;19921;-70
2021/04/23 01:44:19;;;;;;;;;;;18.20;72.30;;;;;;5013200;28;19917;-69
2021/04/23 01:46:46;;;;;;;;;;;18.20;72.70;;;;;;5012960;28;20272;-70
2021/04/23 01:49:14;;;;;;;;;;;18.20;72.60;;;;;;5012101;28;20315;-69
2021/04/23 01:51:43;;;;;;;;;;;18.50;72.60;;;;;;5013074;28;19952;-68
2021/04/23 01:54:10;;;;;;;;;;;18.40;71.30;;;;;;4995669;28;20009;-70
2021/04/23 01:56:37;;;;;;;;;;;18.20;71.80;;;;;;5013104;28;19914;-70
2021/04/23 01:59:05;;;;;;;;;;;18.30;72.70;;;;;;5012479;28;19978;-71
2021/04/23 02:01:32;;;;;;;;;;;18.30;72.50;;;;;;5016329;28;19910;-68
2021/04/23 02:03:59;;;;;;;;;;;18.20;72.50;;;;;;5016864;28;19909;-68
2021/04/23 02:06:28;;;;;;;;;;;18.20;72.00;;;;;;5016602;28;19909;-68
2021/04/23 02:08:56;;;;;;;;;;;18.20;71.70;;;;;;5016321;28;19924;-69
2021/04/23 02:11:23;;;;;;;;;;;18.30;72.80;;;;;;5016352;28;19914;-69
2021/04/23 02:13:55;;;;;;;;;;;18.30;72.70;;;;;;5016433;28;20280;-68
2021/04/23 02:16:22;;;;;;;;;;;18.40;72.80;;;;;;5016634;28;19937;-69
2021/04/23 02:18:49;;;;;;;;;;;18.40;71.60;;;;;;5016101;28;19909;-69
2021/04/23 02:21:16;;;;;;;;;;;18.40;70.20;;;;;;4998960;28;19918;-68
2021/04/23 02:23:44;;;;;;;;;;;18.40;71.20;;;;;;5016448;28;20000;-69
2021/04/23 02:26:11;;;;;;;;;;;18.40;69.70;;;;;;5016129;28;19909;-69
2021/04/23 02:28:38;;;;;;;;;;;18.60;69.90;;;;;;5016091;28;19923;-69
2021/04/23 02:31:10;;;;;;;;;;;18.60;69.30;;;;;;5010334;28;20360;-69
2021/04/23 02:33:37;;;;;;;;;;;18.60;70.10;;;;;;5004611;28;19914;-69
2021/04/23 02:36:04;;;;;;;;;;;18.60;69.80;;;;;;4995656;28;20339;-67
2021/04/23 02:38:34;;;;;;;;;;;18.60;69.60;;;;;;4995602;28;19909;-66
2021/04/23 02:41:02;;;;;;;;;;;18.60;70.10;;;;;;4995134;28;19929;-66
2021/04/23 02:43:32;;;;;;;;;;;18.60;70.20;;;;;;4995700;28;19909;-67
2021/04/23 02:45:59;;;;;;;;;;;18.70;67.90;;;;;;4995632;28;20275;-68
2021/04/23 02:48:28;;;;;;;;;;;18.80;70.00;;;;;;4995808;28;19917;-67
2021/04/23 02:50:57;;;;;;;;;;;18.80;69.90;;;;;;4995591;28;20400;-67
2021/04/23 02:53:26;;;;;;;;;;;18.70;70.40;;;;;;4995572;28;19913;-69
2021/04/23 02:55:54;;;;;;;;;;;18.70;70.00;;;;;;4995945;28;19910;-69
2021/04/23 02:58:21;;;;;;;;;;;18.60;71.00;;;;;;4995760;28;19910;-68
2021/04/23 03:00:50;;;;;;;;;;;18.60;69.30;;;;;;4996881;28;19917;-69
2021/04/23 03:03:17;;;;;;;;;;;18.60;69.50;;;;;;4998272;28;19945;-67
2021/04/23 03:05:44;;;;;;;;;;;18.70;70.20;;;;;;5000553;28;20383;-70
2021/04/23 03:08:12;;;;;;;;;;;18.80;69.70;;;;;;4998288;28;20372;-69
2021/04/23 03:10:43;;;;;;;;;;;18.70;70.20;;;;;;4994732;28;19920;-68
2021/04/23 03:13:12;;;;;;;;;;;18.80;69.50;;;;;;4994627;28;19964;-70
2021/04/23 03:15:39;;;;;;;;;;;18.80;70.00;;;;;;4994975;28;19910;-69
2021/04/23 03:18:06;;;;;;;;;;;19.00;68.90;;;;;;4995232;28;19910;-71
2021/04/23 03:20:33;;;;;;;;;;;19.00;69.10;;;;;;4995188;28;19909;-70
2021/04/23 03:23:00;;;;;;;;;;;19.00;69.50;;;;;;4994795;28;19916;-69
2021/04/23 03:25:27;;;;;;;;;;;18.90;70.70;;;;;;4994268;28;19910;-68
2021/04/23 03:27:55;;;;;;;;;;;18.90;69.70;;;;;;4994739;28;20276;-68
2021/04/23 03:30:27;;;;;;;;;;;18.80;71.00;;;;;;4994693;28;20009;-68
2021/04/23 03:32:54;;;;;;;;;;;18.80;69.60;;;;;;4994304;28;19917;-69
2021/04/23 03:35:21;;;;;;;;;;;18.90;70.70;;;;;;5005766;28;19916;-70
2021/04/23 03:37:48;;;;;;;;;;;19.10;69.30;;;;;;5015113;28;19972;-68
2021/04/23 03:40:16;;;;;;;;;;;19.00;68.50;;;;;;5014625;28;20363;-69
2021/04/23 03:42:43;;;;;;;;;;;19.10;68.80;;;;;;5014662;28;20253;-70
2021/04/23 03:45:10;;;;;;;;;;;19.10;69.00;;;;;;5014704;28;19910;-68
2021/04/23 03:47:37;;;;;;;;;;;19.10;68.70;;;;;;5014614;28;19914;-69
2021/04/23 03:50:05;;;;;;;;;;;19.10;68.90;;;;;;5014716;28;19921;-67
2021/04/23 03:52:32;;;;;;;;;;;19.20;69.40;;;;;;5014792;28;19914;-69
2021/04/23 03:55:00;;;;;;;;;;;19.10;71.20;;;;;;5014450;28;19910;-69
2021/04/23 03:57:28;;;;;;;;;;;19.10;68.80;;;;;;5014402;28;19909;-68
2021/04/23 03:59:55;;;;;;;;;;;19.00;69.30;;;;;;5014447;28;20356;-68
2021/04/23 04:02:21;;;;;;;;;;;19.10;69.30;;;;;;5014501;28;19932;-69
2021/04/23 04:04:48;;;;;;;;;;;19.30;68.90;;;;;;5014286;28;19909;-70
2021/04/23 04:07:15;;;;;;;;;;;19.30;68.20;;;;;;5014494;28;19909;-70
2021/04/23 04:09:42;;;;;;;;;;;19.20;70.80;;;;;;5014486;28;19925;-70
2021/04/23 04:12:09;;;;;;;;;;;19.20;69.70;;;;;;4996882;28;20272;-67
2021/04/23 04:14:35;;;;;;;;;;;19.20;69.20;;;;;;5014466;28;20411;-67
2021/04/23 04:17:05;;;;;;;;;;;19.30;68.40;;;;;;5014194;28;19917;-66
2021/04/23 04:19:32;;;;;;;;;;;19.30;69.30;;;;;;5014351;28;19914;-68
2021/04/23 04:21:59;;;;;;;;;;;19.40;69.30;;;;;;5014174;28;19917;-69
2021/04/23 04:24:25;;;;;;;;;;;19.50;69.60;;;;;;5014350;28;19913;-70
2021/04/23 04:26:52;;;;;;;;;;;19.60;69.60;;;;;;5013913;28;20376;-67
2021/04/23 04:29:23;;;;;;;;;;;19.60;68.10;;;;;;5014265;28;19921;-70
2021/04/23 04:31:52;;;;;;;;;;;19.60;67.90;;;;;;5017675;28;19917;-69
2021/04/23 04:34:19;;;;;;;;;;;19.60;68.30;;;;;;5019298;28;19916;-69
2021/04/23 04:36:47;;;;;;;;;;;19.60;69.30;;;;;;5021436;28;19910;-68
2021/04/23 04:39:14;;;;;;;;;;;19.50;69.20;;;;;;5018501;28;19917;-70
2021/04/23 04:41:42;;;;;;;;;;;19.50;68.90;;;;;;5013656;28;20387;-72
2021/04/23 04:44:08;;;;;;;;;;;19.40;69.20;;;;;;5013999;28;20376;-69
2021/04/23 04:46:35;;;;;;;;;;;19.40;68.70;;;;;;5013920;28;19909;-70
2021/04/23 04:49:01;;;;;;;;;;;19.40;68.20;;;;;;5013643;28;19964;-69
2021/04/23 04:51:28;;;;;;;;;;;19.40;69.10;;;;;;5013639;28;19909;-68
2021/04/23 04:53:55;;;;;;;;;;;19.30;69.70;;;;;;5012588;28;20257;-71
2021/04/23 04:56:22;;;;;;;;;;;19.20;69.60;;;;;;5013361;28;20336;-69
2021/04/23 04:58:48;;;;;;;;;;;19.20;74.30;;;;;;5013754;28;19909;-69
2021/04/23 05:01:18;;;;;;;;;;;19.00;77.40;;;;;;5013513;28;19909;-70
2021/04/23 05:03:45;;;;;;;;;;;18.90;78.10;;;;;;5013672;28;19910;-68
2021/04/23 05:06:12;;;;;;;;;;;18.70;79.00;;;;;;5012788;28;19916;-69
2021/04/23 05:08:39;;;;;;;;;;;18.80;79.60;;;;;;5013451;28;19924;-70
2021/04/23 05:11:06;;;;;;;;;;;18.70;79.70;;;;;;5012979;28;20352;-69
2021/04/23 05:13:32;;;;;;;;;;;18.60;80.20;;;;;;5013640;28;20344;-70
2021/04/23 05:16:00;;;;;;;;;;;18.50;80.00;;;;;;5013766;28;19914;-70
2021/04/23 05:18:26;;;;;;;;;;;18.50;79.90;;;;;;5012960;28;20384;-71
2021/04/23 05:20:54;;;;;;;;;;;18.60;79.90;;;;;;5013461;28;19921;-71
2021/04/23 05:23:22;;;;;;;;;;;18.50;81.40;;;;;;5013235;28;19955;-70
2021/04/23 05:25:48;;;;;;;;;;;18.60;81.30;;;;;;5013015;28;20399;-69
2021/04/23 05:28:15;;;;;;;;;;;18.70;80.20;;;;;;5013076;28;19961;-69
2021/04/23 05:30:45;;;;;;;;;;;18.70;79.90;;;;;;5013022;28;19914;-67
2021/04/23 05:33:12;;;;;;;;;;;18.60;80.20;;;;;;4995705;28;20414;-70
2021/04/23 05:35:39;;;;;;;;;;;18.50;79.90;;;;;;5015664;28;20275;-69
2021/04/23 05:38:06;;;;;;;;;;;18.50;81.00;;;;;;4999579;28;20008;-69
2021/04/23 05:40:35;;;;;;;;;;;18.40;81.30;;;;;;5017104;28;19925;-69
2021/04/23 05:43:03;;;;;;;;;;;18.40;81.10;;;;;;5016737;28;19957;-69
2021/04/23 05:45:29;;;;;;;;;;;18.40;81.80;;;;;;5016420;28;19917;-68
2021/04/23 05:47:57;;;;;;;;;;;18.30;81.10;;;;;;5017129;28;19916;-69
2021/04/23 05:50:26;;;;;;;;;;;18.30;82.20;;;;;;5016717;28;19910;-70
2021/04/23 05:52:53;;;;;;;;;;;18.30;82.50;;;;;;5016812;28;19909;-69
2021/04/23 05:55:21;;;;;;;;;;;18.30;82.00;;;;;;5016743;28;20363;-69
2021/04/23 05:57:49;;;;;;;;;;;18.30;81.90;;;;;;5016644;28;19910;-70
2021/04/23 06:00:19;;;;;;;;;;;18.20;82.20;;;;;;5016744;28;19909;-70
2021/04/23 06:02:49;;;;;;;;;;;18.20;83.30;;;;;;5000479;28;19914;-70
2021/04/23 06:05:18;;;;;;;;;;;18.20;83.80;;;;;;5002877;28;19917;-69
2021/04/23 06:07:45;;;;;;;;;;;18.10;83.20;;;;;;5020686;28;19960;-68
2021/04/23 06:10:14;;;;;;;;;;;18.00;83.50;;;;;;5004228;28;19943;-70
2021/04/23 06:12:41;;;;;;;;;;;18.10;84.10;;;;;;5016621;28;19980;-70
2021/04/23 06:15:08;;;;;;;;;;;18.10;83.00;;;;;;5016434;28;19909;-69
2021/04/23 06:17:35;;;;;;;;;;;18.10;83.20;;;;;;5016492;28;19909;-68
2021/04/23 06:20:04;;;;;;;;;;;18.10;84.00;;;;;;5016265;28;19910;-70
2021/04/23 06:22:31;;;;;;;;;;;18.00;82.70;;;;;;5016446;28;19977;-69
2021/04/23 06:24:57;;;;;;;;;;;17.90;83.70;;;;;;5015866;28;19917;-70
2021/04/23 06:27:24;;;;;;;;;;;17.90;83.70;;;;;;5016210;28;20004;-69
2021/04/23 06:29:51;;;;;;;;;;;17.80;83.40;;;;;;5016348;28;19921;-70
2021/04/23 06:32:19;;;;;;;;;;;17.80;83.50;;;;;;5016372;28;20466;-71
2021/04/23 06:34:46;;;;;;;;;;;17.80;84.50;;;;;;5016324;28;19910;-68
2021/04/23 06:37:14;;;;;;;;;;;17.80;84.20;;;;;;4998505;28;19917;-69
2021/04/23 06:39:40;;;;;;;;;;;17.80;83.50;;;;;;5015692;28;19921;-70
2021/04/23 06:42:07;;;;;;;;;;;17.70;83.70;;;;;;5016264;28;19913;-70
2021/04/23 06:44:34;;;;;;;;;;;17.70;84.00;;;;;;5016062;28;19952;-70
2021/04/23 06:47:00;;;;;;;;;;;17.60;84.20;;;;;;5015803;28;19910;-69
2021/04/23 06:49:27;;;;;;;;;;;17.60;85.50;;;;;;5015707;28;19917;-71
2021/04/23 06:51:54;;;;;;;;;;;17.60;84.90;;;;;;5015858;28;19909;-71
2021/04/23 06:54:20;;;;;;;;;;;17.50;85.10;;;;;;5016126;28;19944;-71
2021/04/23 06:56:47;;;;;;;;;;;17.40;84.70;;;;;;5015865;28;19910;-71
2021/04/23 06:59:13;;;;;;;;;;;17.40;84.70;;;;;;5015608;28;20292;-70
2021/04/23 07:01:40;;;;;;;;;;;17.30;85.10;;;;;;5015748;28;20016;-69
2021/04/23 07:04:07;;;;;;;;;;;17.30;86.20;;;;;;5015489;28;19909;-68
2021/04/23 07:06:38;;;;;;;;;;;17.30;86.30;;;;;;5015512;28;20360;-68
2021/04/23 07:09:05;;;;;;;;;;;17.20;84.20;;;;;;5015376;28;20372;-67
2021/04/23 07:11:32;;;;;;;;;;;17.20;85.20;;;;;;5015604;28;19913;-68
2021/04/23 07:14:02;;;;;;;;;;;17.10;84.40;;;;;;5015742;28;20379;-70
2021/04/23 07:16:29;;;;;;;;;;;17.10;84.40;;;;;;5015699;28;20311;-69
2021/04/23 07:18:56;;;;;;;;;;;17.10;84.80;;;;;;5015812;28;19958;-68
2021/04/23 07:21:23;;;;;;;;;;;17.00;84.20;;;;;;5015311;28;19913;-67
2021/04/23 07:23:50;;;;;;;;;;;17.00;85.00;;;;;;4997780;28;19913;-69
2021/04/23 07:26:19;;;;;;;;;;;17.00;86.80;;;;;;5014987;28;20435;-69
2021/04/23 07:28:46;;;;;;;;;;;16.90;87.10;;;;;;5014915;28;20381;-70
2021/04/23 07:31:12;;;;;;;;;;;16.90;85.30;;;;;;5015337;28;20339;-69
2021/04/23 07:33:40;;;;;;;;;;;16.80;86.30;;;;;;5017021;28;19909;-68
2021/04/23 07:36:10;;;;;;;;;;;16.80;86.70;;;;;;5018360;28;19910;-69
2021/04/23 07:38:36;;;;;;;;;;;16.80;86.80;;;;;;5019599;28;19913;-69
2021/04/23 07:41:03;;;;;;;;;;;16.70;86.80;;;;;;5002620;28;19983;-69
2021/04/23 07:43:30;;;;;;;;;;;16.60;87.20;;;;;;4993134;28;19972;-68
2021/04/23 07:45:58;;;;;;;;;;;16.60;87.50;;;;;;4993412;28;19932;-70
2021/04/23 07:48:24;;;;;;;;;;;16.50;87.90;;;;;;4993144;28;19920;-68
2021/04/23 07:50:51;;;;;;;;;;;16.50;88.30;;;;;;4992918;28;20005;-70
2021/04/23 07:53:18;;;;;;;;;;;16.50;89.00;;;;;;4992940;28;19972;-71
2021/04/23 07:55:45;;;;;;;;;;;16.50;89.40;;;;;;4991495;28;20253;-72
2021/04/23 07:58:12;;;;;;;;;;;16.50;89.40;;;;;;4992643;28;19985;-71
2021/04/23 08:00:39;;;;;;;;;;;16.50;89.40;;;;;;4992805;28;19959;-70
2021/04/23 08:03:05;;;;;;;;;;;16.40;89.80;;;;;;4992867;28;19909;-69
2021/04/23 08:05:32;;;;;;;;;;;16.40;90.10;;;;;;4992945;28;19918;-72
2021/04/23 08:07:59;;;;;;;;;;;16.30;90.00;;;;;;4992478;28;20365;-71
2021/04/23 08:10:27;;;;;;;;;;;16.30;90.10;;;;;;4992601;28;20600;-71
2021/04/23 08:12:54;;;;;;;;;;;16.30;90.40;;;;;;4992625;28;19956;-71
2021/04/23 08:15:23;;;;;;;;;;;16.30;90.70;;;;;;4992544;28;20353;-70
2021/04/23 08:17:50;;;;;;;;;;;16.30;90.70;;;;;;4993108;28;19920;-71
2021/04/23 08:20:17;;;;;;;;;;;16.30;90.70;;;;;;4992177;28;19953;-72
2021/04/23 08:22:45;;;;;;;;;;;16.30;90.80;;;;;;4992412;28;19945;-69
2021/04/23 08:25:12;;;;;;;;;;;16.20;90.90;;;;;;4992443;28;20265;-70
2021/04/23 08:27:39;;;;;;;;;;;16.20;91.20;;;;;;4992667;28;19955;-72
2021/04/23 08:30:08;;;;;;;;;;;16.20;91.40;;;;;;4991652;28;20308;-72
2021/04/23 08:32:36;;;;;;;;;;;16.20;91.10;;;;;;4992123;28;19914;-70
2021/04/23 08:35:07;;;;;;;;;;;16.20;91.00;;;;;;4992179;28;19918;-72
2021/04/23 08:37:37;;;;;;;;;;;16.20;91.00;;;;;;4992747;28;19910;-72
2021/04/23 08:40:04;;;;;;;;;;;16.30;91.00;;;;;;4992287;28;19970;-71
2021/04/23 08:42:32;;;;;;;;;;;16.30;91.10;;;;;;4992524;28;19936;-72
2021/04/23 08:44:59;;;;;;;;;;;16.30;90.80;;;;;;4991917;28;19949;-70
2021/04/23 08:47:25;;;;;;;;;;;16.40;91.00;;;;;;4990928;28;19917;-71
2021/04/23 08:49:57;;;;;;;;;;;16.40;90.60;;;;;;4992247;28;20007;-71
2021/04/23 08:52:26;;;;;;;;;;;16.40;90.60;;;;;;4992986;28;19973;-71
2021/04/23 08:54:54;;;;;;;;;;;16.40;91.10;;;;;;4991982;28;19980;-71
2021/04/23 08:57:21;;;;;;;;;;;16.30;91.20;;;;;;4991748;28;19910;-70
2021/04/23 08:59:48;;;;;;;;;;;16.40;91.30;;;;;;4991258;28;19910;-72
2021/04/23 09:02:16;;;;;;;;;;;16.40;91.60;;;;;;4993787;28;19914;-70
2021/04/23 09:04:42;;;;;;;;;;;16.40;91.80;;;;;;4996265;28;19918;-71
2021/04/23 09:07:09;;;;;;;;;;;16.30;91.70;;;;;;5000196;28;19909;-72
2021/04/23 09:09:40;;;;;;;;;;;16.20;91.80;;;;;;4998684;28;19918;-72
2021/04/23 09:12:20;;;;;;;;;;;16.20;92.00;;;;;;4994545;28;19914;-71
2021/04/23 09:14:48;;;;;;;;;;;16.10;91.90;;;;;;4993866;28;19909;-71
2021/04/23 09:17:18;;;;;;;;;;;16.10;92.20;;;;;;4993817;28;19910;-72
2021/04/23 09:19:45;;;;;;;;;;;16.10;92.60;;;;;;4994154;28;19949;-71
2021/04/23 09:22:18;;;;;;;;;;;16.00;92.70;;;;;;4993930;28;19961;-68
2021/04/23 09:24:55;;;;;;;;;;;16.10;93.10;;;;;;4993439;28;19964;-71
2021/04/23 09:27:23;;;;;;;;;;;16.10;93.00;;;;;;4993947;28;19936;-68
2021/04/23 09:29:51;;;;;;;;;;;16.00;93.00;;;;;;4993652;28;19918;-71
2021/04/23 09:32:22;;;;;;;;;;;16.00;93.30;;;;;;4993863;28;20403;-70
2021/04/23 09:34:52;;;;;;;;;;;16.00;93.40;;;;;;4993421;28;19910;-70
2021/04/23 09:37:19;;;;;;;;;;;15.90;93.60;;;;;;4993688;28;19910;-69
2021/04/23 09:39:47;;;;;;;;;;;15.90;93.80;;;;;;4993375;28;20395;-70
2021/04/23 09:42:15;;;;;;;;;;;16.00;93.90;;;;;;4993738;28;19953;-72
2021/04/23 09:44:42;;;;;;;;;;;15.90;94.00;;;;;;4993917;28;19920;-70
2021/04/23 09:47:14;;;;;;;;;;;15.90;94.20;;;;;;4994146;28;19968;-70
2021/04/23 09:50:01;;;;;;;;;;;16.00;94.20;;;;;;4993783;28;20332;-70
2021/04/23 09:52:29;;;;;;;;;;;16.00;94.40;;;;;;4993118;28;20423;-70
2021/04/23 09:55:03;;;;;;;;;;;15.90;94.50;;;;;;4992007;28;19917;-70
2021/04/23 09:57:34;;;;;;;;;;;15.90;94.50;;;;;;4993602;28;19953;-71
2021/04/23 10:00:01;;;;;;;;;;;15.80;94.70;;;;;;4993715;28;19910;-72
2021/04/23 10:02:29;;;;;;;;;;;15.80;94.80;;;;;;4993785;28;19917;-72
2021/04/23 10:04:57;;;;;;;;;;;15.80;94.80;;;;;;4992051;28;19914;-73
2021/04/23 10:07:27;;;;;;;;;;;15.70;94.90;;;;;;4993282;28;19929;-71
2021/04/23 10:10:05;;;;;;;;;;;15.70;94.90;;;;;;4993169;28;19973;-71
2021/04/23 10:12:52;;;;;;;;;;;15.70;95.00;;;;;;4993294;28;19921;-72
2021/04/23 10:15:19;;;;;;;;;;;15.60;95.10;;;;;;4992690;28;20420;-72
2021/04/23 10:18:06;;;;;;;;;;;15.60;95.10;;;;;;4993201;28;19909;-71
2021/04/23 10:20:37;;;;;;;;;;;15.60;95.30;;;;;;4993170;28;19914;-71
2021/04/23 10:23:05;;;;;;;;;;;15.50;95.20;;;;;;4996539;28;19918;-71
2021/04/23 10:25:32;;;;;;;;;;;15.50;95.30;;;;;;4996499;28;20315;-71
2021/04/23 10:28:00;;;;;;;;;;;15.50;95.30;;;;;;4996866;28;19910;-71
2021/04/23 10:30:30;;;;;;;;;;;15.60;95.20;;;;;;4996253;28;20266;-71
2021/04/23 10:33:00;;;;;;;;;;;15.60;95.30;;;;;;4999442;28;19964;-70
2021/04/23 10:35:27;;;;;;;;;;;15.60;95.00;;;;;;5000949;28;19972;-73
2021/04/23 10:37:59;;;;;;;;;;;15.60;95.10;;;;;;5004369;28;19945;-71
2021/04/23 10:40:25;;;;;;;;;;;15.60;95.20;;;;;;4998457;28;19921;-71
2021/04/23 10:42:57;;;;;;;;;;;15.60;95.20;;;;;;4996309;28;19940;-70
2021/04/23 10:45:24;;;;;;;;;;;15.50;94.90;;;;;;4995872;28;19960;-69
2021/04/23 10:47:51;;;;;;;;;;;15.50;94.80;;;;;;4996404;28;19910;-70
2021/04/23 10:50:19;;;;;;;;;;;15.60;94.80;;;;;;4996314;28;19918;-71
2021/04/23 10:53:03;;;;;;;;;;;15.60;94.80;;;;;;4996010;28;20287;-71
2021/04/23 10:55:48;;;;;;;;;;;15.60;94.70;;;;;;4996145;28;19917;-71
2021/04/23 10:58:27;;;;;;;;;;;15.50;95.10;;;;;;4995889;28;20341;-69
2021/04/23 11:00:54;;;;;;;;;;;15.50;94.80;;;;;;4996048;28;19910;-70
2021/04/23 11:03:21;;;;;;;;;;;15.50;94.90;;;;;;4996158;28;20353;-71
2021/04/23 11:05:51;;;;;;;;;;;15.50;95.10;;;;;;4996196;28;19910;-70
2021/04/23 11:08:18;;;;;;;;;;;15.50;95.20;;;;;;4995886;28;19910;-70
2021/04/23 11:11:05;;;;;;;;;;;15.50;95.20;;;;;;4995723;28;19913;-71
2021/04/23 11:13:33;;;;;;;;;;;15.60;95.10;;;;;;4995136;28;20371;-71
2021/04/23 11:16:18;;;;;;;;;;;15.60;95.10;;;;;;4995966;28;19910;-71
2021/04/23 11:19:07;;;;;;;;;;;15.60;95.00;;;;;;4995678;28;19916;-70
2021/04/23 11:21:35;;;;;;;;;;;15.60;95.20;;;;;;4995283;28;19914;-70
2021/04/23 11:24:14;;;;;;;;;;;15.60;95.30;;;;;;4997742;28;20004;-70
2021/04/23 11:27:01;;;;;;;;;;;15.50;95.40;;;;;;4998502;28;19937;-71
2021/04/23 11:29:29;;;;;;;;;;;15.50;94.80;;;;;;4999826;28;20387;-67
2021/04/23 11:32:12;;;;;;;;;;;15.60;94.60;;;;;;5000553;28;19917;-67
2021/04/23 11:34:40;;;;;;;;;;;15.60;94.40;;;;;;5000309;28;20009;-67
2021/04/23 11:37:09;;;;;;;;;;;15.60;94.30;;;;;;5000346;28;19910;-68
2021/04/23 11:39:44;;;;;;;;;;;15.60;94.30;;;;;;4999583;28;19922;-69
2021/04/23 11:42:22;;;;;;;;;;;15.60;94.30;;;;;;4998516;28;20368;-68
2021/04/23 11:44:53;;;;;;;;;;;15.60;94.10;;;;;;4995598;28;20013;-70
2021/04/23 11:47:26;;;;;;;;;;;15.60;93.90;;;;;;4998609;28;20012;-68
2021/04/23 11:50:19;;;;;;;;;;;15.60;93.80;;;;;;4996399;28;19921;-68
2021/04/23 11:52:48;;;;;;;;;;;15.60;93.80;;;;;;4992339;28;19914;-69
2021/04/23 11:55:17;;;;;;;;;;;15.60;93.90;;;;;;4995185;28;19964;-70
2021/04/23 11:57:44;;;;;;;;;;;15.60;93.80;;;;;;4994672;28;19956;-69
2021/04/23 12:00:23;;;;;;;;;;;15.60;93.70;;;;;;4997665;28;19963;-69
2021/04/23 12:02:56;;;;;;;;;;;15.60;93.70;;;;;;5000450;28;19909;-70
2021/04/23 12:05:27;;;;;;;;;;;15.50;93.90;;;;;;5000188;28;19917;-69
2021/04/23 12:07:56;;;;;;;;;;;15.50;94.10;;;;;;5001656;28;19945;-70
2021/04/23 12:10:24;;;;;;;;;;;15.50;94.00;;;;;;4994999;28;19929;-70
2021/04/23 12:12:50;;;;;;;;;;;15.50;94.10;;;;;;4993781;28;20391;-70
2021/04/23 12:15:43;;;;;;;;;;;15.50;94.00;;;;;;4994950;28;20017;-67
2021/04/23 12:18:11;;;;;;;;;;;15.50;94.10;;;;;;4991996;28;19914;-68
2021/04/23 12:20:41;;;;;;;;;;;15.50;93.80;;;;;;4994769;28;19916;-68
2021/04/23 12:23:12;;;;;;;;;;;15.40;93.70;;;;;;4994182;28;19914;-70
2021/04/23 12:25:40;;;;;;;;;;;15.40;93.80;;;;;;4994585;28;20320;-69
2021/04/23 12:28:21;;;;;;;;;;;15.40;94.00;;;;;;4992712;28;20403;-69
2021/04/23 12:30:52;;;;;;;;;;;15.40;94.10;;;;;;4994262;28;20403;-68
2021/04/23 12:33:19;;;;;;;;;;;15.40;94.10;;;;;;4994327;28;19980;-70
2021/04/23 12:35:47;;;;;;;;;;;15.40;93.90;;;;;;4994577;28;19957;-69
2021/04/23 12:38:19;;;;;;;;;;;15.40;93.70;;;;;;4994068;28;19933;-70
2021/04/23 12:40:46;;;;;;;;;;;15.30;93.70;;;;;;4992613;28;19929;-68
2021/04/23 12:43:21;;;;;;;;;;;15.30;93.70;;;;;;4994052;28;19921;-69
2021/04/23 12:45:47;;;;;;;;;;;15.30;93.80;;;;;;4994048;28;19910;-68
2021/04/23 12:48:15;;;;;;;;;;;15.30;93.60;;;;;;4994310;28;20419;-68
2021/04/23 12:50:42;;;;;;;;;;;15.30;93.50;;;;;;4994186;28;19914;-69
2021/04/23 12:53:12;;;;;;;;;;;15.30;93.40;;;;;;4993950;28;20436;-68
2021/04/23 12:55:40;;;;;;;;;;;15.30;93.60;;;;;;4994069;28;19971;-67
2021/04/23 12:58:07;;;;;;;;;;;15.30;93.40;;;;;;4993480;28;19948;-68
2021/04/23 13:00:34;;;;;;;;;;;15.20;93.10;;;;;;4993848;28;19997;-66
2021/04/23 13:03:01;;;;;;;;;;;15.20;93.20;;;;;;4993682;28;20375;-70
2021/04/23 13:05:30;;;;;;;;;;;15.20;93.20;;;;;;4993989;28;19910;-69
2021/04/23 13:07:58;;;;;;;;;;;15.10;92.80;;;;;;4993488;28;19910;-69
2021/04/23 13:10:26;;;;;;;;;;;15.10;92.80;;;;;;4993742;28;20328;-69
2021/04/23 13:12:59;;;;;;;;;;;15.20;92.70;;;;;;4993014;28;20360;-69
2021/04/23 13:15:38;;;;;;;;;;;15.20;92.60;;;;;;4993847;28;19963;-68
2021/04/23 13:18:14;;;;;;;;;;;15.20;92.50;;;;;;4993787;28;20289;-66
2021/04/23 13:20:47;;;;;;;;;;;15.10;92.60;;;;;;4993613;28;19997;-69
2021/04/23 13:23:14;;;;;;;;;;;15.10;92.70;;;;;;4996857;28;19917;-67
2021/04/23 13:25:45;;;;;;;;;;;15.10;92.50;;;;;;5002251;28;20004;-68
2021/04/23 13:28:14;;;;;;;;;;;15.10;92.40;;;;;;5002817;28;20012;-70
2021/04/23 13:30:57;;;;;;;;;;;15.10;92.50;;;;;;5006380;28;19914;-67
2021/04/23 13:33:30;;;;;;;;;;;15.10;92.60;;;;;;5002763;28;19959;-69
2021/04/23 13:36:02;;;;;;;;;;;15.10;92.40;;;;;;5005884;28;19911;-68
2021/04/23 13:38:31;;;;;;;;;;;15.10;92.30;;;;;;5000418;28;19985;-68
2021/04/23 13:41:17;;;;;;;;;;;15.00;92.20;;;;;;5000797;28;19926;-68
2021/04/23 13:43:49;;;;;;;;;;;15.00;92.20;;;;;;4998996;28;19937;-69
2021/04/23 13:46:17;;;;;;;;;;;15.00;92.20;;;;;;4998112;28;19914;-70
2021/04/23 13:48:52;;;;;;;;;;;15.00;92.10;;;;;;5000386;28;19921;-70
2021/04/23 13:51:28;;;;;;;;;;;15.00;92.00;;;;;;4999946;28;19914;-70
2021/04/23 13:53:55;;;;;;;;;;;15.00;92.00;;;;;;4988849;28;19949;-69
2021/04/23 13:56:43;;;;;;;;;;;15.00;92.10;;;;;;4992775;28;19940;-68
2021/04/23 13:59:11;;;;;;;;;;;15.00;92.00;;;;;;4995140;28;19910;-67
2021/04/23 14:01:39;;;;;;;;;;;15.00;92.00;;;;;;4995312;28;19909;-69
2021/04/23 14:04:10;;;;;;;;;;;15.00;92.00;;;;;;4995170;28;19914;-69
2021/04/23 14:06:37;;;;;;;;;;;15.00;92.20;;;;;;5003077;28;19929;-67
2021/04/23 14:09:08;;;;;;;;;;;14.90;92.10;;;;;;4994767;28;19972;-67
2021/04/23 14:11:36;;;;;;;;;;;14.90;92.20;;;;;;4994813;28;19996;-69
2021/04/23 14:14:04;;;;;;;;;;;14.90;92.20;;;;;;4994945;28;19913;-69
2021/04/23 14:16:31;;;;;;;;;;;14.90;92.30;;;;;;4995041;28;19922;-69
2021/04/23 14:19:00;;;;;;;;;;;14.80;92.30;;;;;;4994547;28;20352;-68
2021/04/23 14:21:28;;;;;;;;;;;14.80;92.30;;;;;;4994807;28;19910;-70
2021/04/23 14:23:56;;;;;;;;;;;14.80;92.30;;;;;;4994410;28;19913;-70
2021/04/23 14:26:23;;;;;;;;;;;14.80;92.30;;;;;;4994673;28;19941;-71
2021/04/23 14:28:49;;;;;;;;;;;14.80;92.50;;;;;;4994536;28;19918;-69